sensor_id;sensor_type;location;lat;lon;timestamp;pressure;altitude;pressure_sealevel;temperature;humidity
58769;BME280;44536;47.474;19.056;2023-06-04T00:00:28;100772.19;;;13.94;52.12
58769;BME280;44536;47.474;19.056;2023-06-04T00:03:30;100772.19;;;13.94;53.19
58769;BME280;44536;47.474;19.056;2023-06-04T00:06:33;100766.59;;;13.97;52.56
58769;BME280;44536;47.474;19.056;2023-06-04T00:09:35;100763.22;;;13.95;53.52
58769;BME280;44536;47.474;19.056;2023-06-04T00:12:37;100779.97;;;13.86;53.60
58769;BME280;44536;47.474;19.056;2023-06-04T00:15:40;100778.28;;;13.85;53.33
58769;BME280;44536;47.474;19.056;2023-06-04T00:18:42;100771.00;;;13.87;52.22
58769;BME280;44536;47.474;19.056;2023-06-04T00:21:45;100770.88;;;13.88;52.89
58769;BME280;44536;47.474;19.056;2023-06-04T00:24:47;100776.78;;;13.92;51.98
58769;BME280;44536;47.474;19.056;2023-06-04T00:27:49;100769.31;;;13.86;52.09
58769;BME280;44536;47.474;19.056;2023-06-04T00:30:51;100768.97;;;13.79;52.86
58769;BME280;44536;47.474;19.056;2023-06-04T00:33:56;100758.56;;;13.76;52.28
58769;BME280;44536;47.474;19.056;2023-06-04T00:36:58;100763.75;;;13.78;52.59
58769;BME280;44536;47.474;19.056;2023-06-04T00:40:01;100767.06;;;13.70;52.96
58769;BME280;44536;47.474;19.056;2023-06-04T00:43:03;100754.94;;;13.66;53.12
58769;BME280;44536;47.474;19.056;2023-06-04T00:46:06;100762.81;;;13.68;52.69
58769;BME280;44536;47.474;19.056;2023-06-04T00:49:08;100765.38;;;13.69;52.33
58769;BME280;44536;47.474;19.056;2023-06-04T00:52:11;100773.06;;;13.83;51.97
58769;BME280;44536;47.474;19.056;2023-06-04T00:55:15;100762.75;;;13.90;52.21
58769;BME280;44536;47.474;19.056;2023-06-04T00:58:20;100763.59;;;13.90;52.14
58769;BME280;44536;47.474;19.056;2023-06-04T01:01:26;100762.75;;;13.90;52.44
58769;BME280;44536;47.474;19.056;2023-06-04T01:07:36;100760.06;;;13.90;52.66
58769;BME280;44536;47.474;19.056;2023-06-04T01:10:50;100766.25;;;13.90;52.64
58769;BME280;44536;47.474;19.056;2023-06-04T01:13:52;100755.34;;;13.94;52.50
58769;BME280;44536;47.474;19.056;2023-06-04T01:17:02;100753.38;;;13.96;51.64
58769;BME280;44536;47.474;19.056;2023-06-04T01:23:28;100760.06;;;13.90;52.30
58769;BME280;44536;47.474;19.056;2023-06-04T01:26:36;100755.84;;;13.87;52.50
58769;BME280;44536;47.474;19.056;2023-06-04T01:29:39;100752.84;;;13.81;52.37
58769;BME280;44536;47.474;19.056;2023-06-04T01:32:41;100750.31;;;13.79;52.38
58769;BME280;44536;47.474;19.056;2023-06-04T01:35:44;100757.12;;;13.72;52.03
58769;BME280;44536;47.474;19.056;2023-06-04T01:38:47;100769.84;;;13.69;52.22
58769;BME280;44536;47.474;19.056;2023-06-04T01:41:49;100766.00;;;13.62;53.67
58769;BME280;44536;47.474;19.056;2023-06-04T01:44:51;100773.84;;;13.63;53.58
58769;BME280;44536;47.474;19.056;2023-06-04T01:47:54;100764.56;;;13.57;53.36
58769;BME280;44536;47.474;19.056;2023-06-04T01:50:56;100763.31;;;13.62;53.01
58769;BME280;44536;47.474;19.056;2023-06-04T01:53:59;100771.06;;;13.65;53.01
58769;BME280;44536;47.474;19.056;2023-06-04T01:57:03;100768.41;;;13.65;53.09
58769;BME280;44536;47.474;19.056;2023-06-04T02:00:08;100763.91;;;13.65;51.56
58769;BME280;44536;47.474;19.056;2023-06-04T02:03:13;100762.94;;;13.66;52.87
58769;BME280;44536;47.474;19.056;2023-06-04T02:06:18;100760.66;;;13.62;52.29
58769;BME280;44536;47.474;19.056;2023-06-04T02:09:20;100764.56;;;13.57;52.25
58769;BME280;44536;47.474;19.056;2023-06-04T02:12:23;100770.59;;;13.59;53.29
58769;BME280;44536;47.474;19.056;2023-06-04T02:15:26;100767.47;;;13.54;53.58
58769;BME280;44536;47.474;19.056;2023-06-04T02:18:28;100767.16;;;13.48;54.43
58769;BME280;44536;47.474;19.056;2023-06-04T02:21:32;100767.53;;;13.43;54.49
58769;BME280;44536;47.474;19.056;2023-06-04T02:24:34;100764.25;;;13.40;54.72
58769;BME280;44536;47.474;19.056;2023-06-04T02:27:40;100775.16;;;13.37;54.88
58769;BME280;44536;47.474;19.056;2023-06-04T02:30:43;100777.34;;;13.32;54.87
58769;BME280;44536;47.474;19.056;2023-06-04T02:33:46;100792.34;;;13.33;54.57
58769;BME280;44536;47.474;19.056;2023-06-04T02:36:49;100784.47;;;13.42;53.85
58769;BME280;44536;47.474;19.056;2023-06-04T02:39:55;100777.69;;;13.38;54.77
58769;BME280;44536;47.474;19.056;2023-06-04T02:42:57;100779.53;;;13.38;54.79
58769;BME280;44536;47.474;19.056;2023-06-04T02:46:00;100777.56;;;13.40;54.50
58769;BME280;44536;47.474;19.056;2023-06-04T02:49:02;100779.28;;;13.41;55.53
58769;BME280;44536;47.474;19.056;2023-06-04T02:52:04;100776.50;;;13.31;55.19
58769;BME280;44536;47.474;19.056;2023-06-04T02:55:07;100771.06;;;13.33;54.71
58769;BME280;44536;47.474;19.056;2023-06-04T02:58:11;100768.87;;;13.38;55.04
58769;BME280;44536;47.474;19.056;2023-06-04T03:01:33;100775.87;;;13.39;53.98
58769;BME280;44536;47.474;19.056;2023-06-04T03:04:36;100778.19;;;13.43;54.52
58769;BME280;44536;47.474;19.056;2023-06-04T03:07:38;100769.72;;;13.38;53.87
58769;BME280;44536;47.474;19.056;2023-06-04T03:10:41;100770.44;;;13.40;54.41
58769;BME280;44536;47.474;19.056;2023-06-04T03:13:43;100770.94;;;13.34;54.17
58769;BME280;44536;47.474;19.056;2023-06-04T03:16:45;100773.09;;;13.40;54.39
58769;BME280;44536;47.474;19.056;2023-06-04T03:19:48;100768.00;;;13.37;54.89
58769;BME280;44536;47.474;19.056;2023-06-04T03:22:51;100770.56;;;13.39;54.82
58769;BME280;44536;47.474;19.056;2023-06-04T03:25:54;100768.00;;;13.48;54.90
58769;BME280;44536;47.474;19.056;2023-06-04T03:28:56;100783.44;;;13.54;54.70
58769;BME280;44536;47.474;19.056;2023-06-04T03:31:59;100788.78;;;13.54;55.08
58769;BME280;44536;47.474;19.056;2023-06-04T03:35:02;100789.75;;;13.53;56.92
58769;BME280;44536;47.474;19.056;2023-06-04T03:38:06;100791.91;;;13.59;55.61
58769;BME280;44536;47.474;19.056;2023-06-04T03:41:09;100786.69;;;13.69;55.21
58769;BME280;44536;47.474;19.056;2023-06-04T03:44:14;100791.12;;;13.80;55.90
58769;BME280;44536;47.474;19.056;2023-06-04T03:47:18;100786.22;;;13.96;54.58
58769;BME280;44536;47.474;19.056;2023-06-04T03:50:20;100793.75;;;14.12;54.65
58769;BME280;44536;47.474;19.056;2023-06-04T03:53:23;100796.25;;;14.24;54.38
58769;BME280;44536;47.474;19.056;2023-06-04T03:56:26;100804.88;;;14.49;52.79
58769;BME280;44536;47.474;19.056;2023-06-04T03:59:29;100805.81;;;14.69;53.15
58769;BME280;44536;47.474;19.056;2023-06-04T04:02:33;100805.03;;;14.78;52.36
58769;BME280;44536;47.474;19.056;2023-06-04T04:05:36;100804.38;;;14.65;51.22
58769;BME280;44536;47.474;19.056;2023-06-04T04:08:39;100812.38;;;14.55;52.16
58769;BME280;44536;47.474;19.056;2023-06-04T04:11:45;100819.72;;;14.42;54.23
58769;BME280;44536;47.474;19.056;2023-06-04T04:14:47;100816.81;;;14.34;52.05
58769;BME280;44536;47.474;19.056;2023-06-04T04:17:50;100813.19;;;14.35;51.75
58769;BME280;44536;47.474;19.056;2023-06-04T04:20:56;100813.28;;;14.44;52.20
58769;BME280;44536;47.474;19.056;2023-06-04T04:23:58;100823.72;;;14.57;53.53
58769;BME280;44536;47.474;19.056;2023-06-04T04:27:00;100820.37;;;14.55;52.58
58769;BME280;44536;47.474;19.056;2023-06-04T04:30:06;100817.16;;;14.61;51.73
58769;BME280;44536;47.474;19.056;2023-06-04T04:33:09;100817.06;;;14.72;52.34
58769;BME280;44536;47.474;19.056;2023-06-04T04:36:12;100820.78;;;14.81;52.12
58769;BME280;44536;47.474;19.056;2023-06-04T04:39:15;100826.13;;;14.81;50.46
58769;BME280;44536;47.474;19.056;2023-06-04T04:42:18;100819.59;;;14.95;50.88
58769;BME280;44536;47.474;19.056;2023-06-04T04:45:21;100825.72;;;15.16;50.85
58769;BME280;44536;47.474;19.056;2023-06-04T04:48:26;100826.69;;;15.55;49.45
58769;BME280;44536;47.474;19.056;2023-06-04T04:51:28;100821.84;;;15.89;47.72
58769;BME280;44536;47.474;19.056;2023-06-04T04:54:31;100826.19;;;16.29;46.85
58769;BME280;44536;47.474;19.056;2023-06-04T04:57:33;100828.59;;;16.12;46.63
58769;BME280;44536;47.474;19.056;2023-06-04T05:00:36;100822.09;;;16.25;47.71
58769;BME280;44536;47.474;19.056;2023-06-04T05:03:38;100822.66;;;16.38;47.07
58769;BME280;44536;47.474;19.056;2023-06-04T05:06:41;100825.19;;;16.49;47.07
58769;BME280;44536;47.474;19.056;2023-06-04T05:09:43;100830.97;;;16.54;46.67
58769;BME280;44536;47.474;19.056;2023-06-04T05:12:52;100830.13;;;16.44;47.53
58769;BME280;44536;47.474;19.056;2023-06-04T05:15:55;100831.09;;;16.43;46.08
58769;BME280;44536;47.474;19.056;2023-06-04T05:18:59;100831.25;;;16.51;47.56
58769;BME280;44536;47.474;19.056;2023-06-04T05:22:04;100839.97;;;16.53;46.73
58769;BME280;44536;47.474;19.056;2023-06-04T05:25:06;100851.25;;;16.57;47.97
58769;BME280;44536;47.474;19.056;2023-06-04T05:28:10;100849.97;;;16.61;47.11
58769;BME280;44536;47.474;19.056;2023-06-04T05:31:15;100850.09;;;16.78;46.87
58769;BME280;44536;47.474;19.056;2023-06-04T05:34:18;100849.50;;;16.84;45.90
58769;BME280;44536;47.474;19.056;2023-06-04T05:37:21;100856.38;;;16.97;45.88
58769;BME280;44536;47.474;19.056;2023-06-04T05:40:25;100855.41;;;16.98;44.28
58769;BME280;44536;47.474;19.056;2023-06-04T05:43:28;100857.94;;;16.99;43.75
58769;BME280;44536;47.474;19.056;2023-06-04T05:46:31;100869.81;;;17.24;44.34
58769;BME280;44536;47.474;19.056;2023-06-04T05:49:33;100867.09;;;17.34;41.77
58769;BME280;44536;47.474;19.056;2023-06-04T05:52:36;100862.53;;;17.44;41.79
58769;BME280;44536;47.474;19.056;2023-06-04T05:55:40;100863.47;;;17.25;43.89
58769;BME280;44536;47.474;19.056;2023-06-04T05:58:43;100862.78;;;17.50;41.44
58769;BME280;44536;47.474;19.056;2023-06-04T06:01:45;100863.44;;;17.62;40.79
58769;BME280;44536;47.474;19.056;2023-06-04T06:04:48;100865.13;;;18.08;41.82
58769;BME280;44536;47.474;19.056;2023-06-04T06:07:50;100854.94;;;19.33;39.00
58769;BME280;44536;47.474;19.056;2023-06-04T06:10:53;100850.63;;;20.96;36.14
58769;BME280;44536;47.474;19.056;2023-06-04T06:13:55;100855.00;;;21.84;34.61
58769;BME280;44536;47.474;19.056;2023-06-04T06:16:57;100843.72;;;22.71;32.69
58769;BME280;44536;47.474;19.056;2023-06-04T06:19:59;100837.16;;;23.33;31.79
58769;BME280;44536;47.474;19.056;2023-06-04T06:23:06;100843.75;;;23.60;31.22
58769;BME280;44536;47.474;19.056;2023-06-04T06:26:09;100856.19;;;23.25;32.26
58769;BME280;44536;47.474;19.056;2023-06-04T06:29:12;100862.06;;;21.62;34.28
58769;BME280;44536;47.474;19.056;2023-06-04T06:32:14;100860.13;;;20.76;34.36
58769;BME280;44536;47.474;19.056;2023-06-04T06:35:17;100854.19;;;20.32;35.17
58769;BME280;44536;47.474;19.056;2023-06-04T06:38:19;100869.25;;;19.76;37.76
58769;BME280;44536;47.474;19.056;2023-06-04T06:41:23;100867.87;;;19.64;39.05
58769;BME280;44536;47.474;19.056;2023-06-04T06:44:26;100860.94;;;20.20;36.88
58769;BME280;44536;47.474;19.056;2023-06-04T06:47:28;100865.31;;;20.86;36.17
58769;BME280;44536;47.474;19.056;2023-06-04T06:50:30;100866.16;;;22.95;32.91
58769;BME280;44536;47.474;19.056;2023-06-04T06:53:32;100872.03;;;22.98;30.83
58769;BME280;44536;47.474;19.056;2023-06-04T06:56:35;100876.59;;;21.84;32.68
58769;BME280;44536;47.474;19.056;2023-06-04T06:59:37;100887.50;;;21.28;34.50
58769;BME280;44536;47.474;19.056;2023-06-04T07:02:39;100888.37;;;21.60;35.58
58769;BME280;44536;47.474;19.056;2023-06-04T07:05:42;100893.59;;;21.92;35.35
58769;BME280;44536;47.474;19.056;2023-06-04T07:08:46;100887.84;;;22.26;34.82
58769;BME280;44536;47.474;19.056;2023-06-04T07:11:50;100893.19;;;22.95;31.85
58769;BME280;44536;47.474;19.056;2023-06-04T07:14:52;100898.50;;;21.89;33.09
58769;BME280;44536;47.474;19.056;2023-06-04T07:17:58;100894.44;;;20.90;34.03
58769;BME280;44536;47.474;19.056;2023-06-04T07:21:00;100886.38;;;20.41;35.72
58769;BME280;44536;47.474;19.056;2023-06-04T07:24:02;100897.63;;;20.12;36.33
58769;BME280;44536;47.474;19.056;2023-06-04T07:27:23;100894.94;;;20.29;37.35
58769;BME280;44536;47.474;19.056;2023-06-04T07:30:25;100900.53;;;20.43;35.35
58769;BME280;44536;47.474;19.056;2023-06-04T07:33:27;100896.25;;;21.30;34.72
58769;BME280;44536;47.474;19.056;2023-06-04T07:36:30;100890.91;;;22.46;33.43
58769;BME280;44536;47.474;19.056;2023-06-04T07:39:33;100883.25;;;23.54;31.43
58769;BME280;44536;47.474;19.056;2023-06-04T07:42:35;100882.03;;;23.93;30.44
58769;BME280;44536;47.474;19.056;2023-06-04T07:45:37;100886.12;;;23.08;31.64
58769;BME280;44536;47.474;19.056;2023-06-04T07:48:39;100886.56;;;22.83;31.52
58769;BME280;44536;47.474;19.056;2023-06-04T07:51:41;100895.84;;;22.20;33.09
58769;BME280;44536;47.474;19.056;2023-06-04T07:54:44;100895.59;;;21.98;32.24
58769;BME280;44536;47.474;19.056;2023-06-04T07:57:46;100897.03;;;22.40;33.58
58769;BME280;44536;47.474;19.056;2023-06-04T08:00:49;100898.63;;;22.72;31.84
58769;BME280;44536;47.474;19.056;2023-06-04T08:03:51;100903.59;;;23.65;31.19
58769;BME280;44536;47.474;19.056;2023-06-04T08:06:54;100901.28;;;23.98;30.35
58769;BME280;44536;47.474;19.056;2023-06-04T08:09:57;100903.78;;;23.78;30.74
58769;BME280;44536;47.474;19.056;2023-06-04T08:12:59;100906.19;;;23.73;30.10
58769;BME280;44536;47.474;19.056;2023-06-04T08:16:03;100903.44;;;22.39;31.49
58769;BME280;44536;47.474;19.056;2023-06-04T08:19:06;100906.41;;;22.29;32.60
58769;BME280;44536;47.474;19.056;2023-06-04T08:22:10;100899.50;;;22.50;31.62
58769;BME280;44536;47.474;19.056;2023-06-04T08:25:13;100891.31;;;22.81;32.17
58769;BME280;44536;47.474;19.056;2023-06-04T08:28:16;100894.72;;;23.56;30.79
58769;BME280;44536;47.474;19.056;2023-06-04T08:31:18;100906.28;;;23.80;30.81
58769;BME280;44536;47.474;19.056;2023-06-04T08:34:20;100898.25;;;23.86;30.15
58769;BME280;44536;47.474;19.056;2023-06-04T08:37:22;100903.66;;;23.86;31.31
58769;BME280;44536;47.474;19.056;2023-06-04T08:40:27;100906.59;;;23.70;30.03
58769;BME280;44536;47.474;19.056;2023-06-04T08:43:32;100901.63;;;24.09;30.28
58769;BME280;44536;47.474;19.056;2023-06-04T08:46:36;100892.62;;;24.66;30.71
58769;BME280;44536;47.474;19.056;2023-06-04T08:49:41;100892.62;;;24.45;28.30
58769;BME280;44536;47.474;19.056;2023-06-04T08:52:46;100887.47;;;23.93;28.83
58769;BME280;44536;47.474;19.056;2023-06-04T08:55:49;100894.69;;;22.97;30.46
58769;BME280;44536;47.474;19.056;2023-06-04T08:58:52;100890.13;;;22.83;30.87
58769;BME280;44536;47.474;19.056;2023-06-04T09:01:54;100890.31;;;22.96;32.90
58769;BME280;44536;47.474;19.056;2023-06-04T09:04:57;100890.34;;;23.26;32.11
58769;BME280;44536;47.474;19.056;2023-06-04T09:08:00;100895.44;;;22.91;31.54
58769;BME280;44536;47.474;19.056;2023-06-04T09:11:05;100899.91;;;22.61;33.59
58769;BME280;44536;47.474;19.056;2023-06-04T09:14:08;100904.53;;;22.75;33.83
58769;BME280;44536;47.474;19.056;2023-06-04T09:17:13;100898.50;;;22.88;34.01
58769;BME280;44536;47.474;19.056;2023-06-04T09:20:18;100895.44;;;23.06;32.86
58769;BME280;44536;47.474;19.056;2023-06-04T09:23:20;100896.59;;;23.11;33.49
58769;BME280;44536;47.474;19.056;2023-06-04T09:26:24;100892.53;;;22.93;32.41
58769;BME280;44536;47.474;19.056;2023-06-04T09:29:27;100894.31;;;22.86;33.97
58769;BME280;44536;47.474;19.056;2023-06-04T09:32:29;100902.34;;;22.94;34.33
58769;BME280;44536;47.474;19.056;2023-06-04T09:35:32;100896.38;;;22.84;32.49
58769;BME280;44536;47.474;19.056;2023-06-04T09:38:34;100904.44;;;23.21;34.15
58769;BME280;44536;47.474;19.056;2023-06-04T09:41:40;100904.44;;;23.21;32.77
58769;BME280;44536;47.474;19.056;2023-06-04T09:44:42;100901.72;;;23.21;33.54
58769;BME280;44536;47.474;19.056;2023-06-04T09:47:45;100898.84;;;23.37;33.24
58769;BME280;44536;47.474;19.056;2023-06-04T09:50:48;100906.47;;;23.19;33.45
58769;BME280;44536;47.474;19.056;2023-06-04T09:53:53;100900.88;;;23.06;32.74
58769;BME280;44536;47.474;19.056;2023-06-04T09:56:57;100905.91;;;22.71;35.38
58769;BME280;44536;47.474;19.056;2023-06-04T10:00:00;100895.81;;;22.65;35.49
58769;BME280;44536;47.474;19.056;2023-06-04T10:03:12;100904.72;;;21.97;34.55
58769;BME280;44536;47.474;19.056;2023-06-04T10:06:17;100907.97;;;21.85;34.74
58769;BME280;44536;47.474;19.056;2023-06-04T10:09:20;100910.97;;;21.59;37.33
58769;BME280;44536;47.474;19.056;2023-06-04T10:12:25;100908.84;;;21.46;36.88
58769;BME280;44536;47.474;19.056;2023-06-04T10:15:30;100912.88;;;21.50;35.77
58769;BME280;44536;47.474;19.056;2023-06-04T10:18:35;100911.44;;;21.23;36.61
58769;BME280;44536;47.474;19.056;2023-06-04T10:21:37;100906.06;;;21.23;35.22
58769;BME280;44536;47.474;19.056;2023-06-04T10:24:40;100912.28;;;21.24;37.70
58769;BME280;44536;47.474;19.056;2023-06-04T10:27:43;100906.28;;;21.53;36.95
58769;BME280;44536;47.474;19.056;2023-06-04T10:30:46;100906.22;;;21.30;37.65
58769;BME280;44536;47.474;19.056;2023-06-04T10:33:53;100900.56;;;21.47;39.18
58769;BME280;44536;47.474;19.056;2023-06-04T10:36:56;100905.91;;;21.64;35.60
58769;BME280;44536;47.474;19.056;2023-06-04T10:39:58;100903.00;;;21.73;37.99
58769;BME280;44536;47.474;19.056;2023-06-04T10:43:07;100900.38;;;21.49;38.31
58769;BME280;44536;47.474;19.056;2023-06-04T10:46:13;100910.47;;;21.63;36.96
58769;BME280;44536;47.474;19.056;2023-06-04T10:49:25;100915.16;;;21.69;36.08
58769;BME280;44536;47.474;19.056;2023-06-04T10:52:27;100911.59;;;21.77;36.40
58769;BME280;44536;47.474;19.056;2023-06-04T10:55:30;100904.13;;;22.18;36.29
58769;BME280;44536;47.474;19.056;2023-06-04T10:58:33;100903.38;;;22.70;36.31
58769;BME280;44536;47.474;19.056;2023-06-04T11:01:36;100908.72;;;23.16;33.31
58769;BME280;44536;47.474;19.056;2023-06-04T11:04:38;100900.44;;;23.32;33.73
58769;BME280;44536;47.474;19.056;2023-06-04T11:07:42;100896.97;;;23.23;33.06
58769;BME280;44536;47.474;19.056;2023-06-04T11:10:45;100906.69;;;23.32;33.41
58769;BME280;44536;47.474;19.056;2023-06-04T11:13:48;100897.87;;;23.89;31.65
58769;BME280;44536;47.474;19.056;2023-06-04T11:16:50;100901.84;;;24.72;31.70
58769;BME280;44536;47.474;19.056;2023-06-04T11:19:52;100899.50;;;24.05;31.23
58769;BME280;44536;47.474;19.056;2023-06-04T11:22:58;100901.16;;;23.26;32.67
58769;BME280;44536;47.474;19.056;2023-06-04T11:26:01;100907.03;;;23.15;32.65
58769;BME280;44536;47.474;19.056;2023-06-04T11:29:10;100904.63;;;23.34;33.62
58769;BME280;44536;47.474;19.056;2023-06-04T11:32:20;100899.22;;;23.34;33.33
58769;BME280;44536;47.474;19.056;2023-06-04T11:35:24;100900.78;;;23.88;33.35
58769;BME280;44536;47.474;19.056;2023-06-04T11:38:26;100897.06;;;23.59;33.12
58769;BME280;44536;47.474;19.056;2023-06-04T11:41:29;100900.69;;;23.07;34.97
58769;BME280;44536;47.474;19.056;2023-06-04T11:44:32;100888.72;;;22.87;34.60
58769;BME280;44536;47.474;19.056;2023-06-04T11:47:34;100896.00;;;22.41;33.55
58769;BME280;44536;47.474;19.056;2023-06-04T11:50:40;100902.78;;;22.37;33.83
58769;BME280;44536;47.474;19.056;2023-06-04T11:53:42;100904.00;;;22.11;37.76
58769;BME280;44536;47.474;19.056;2023-06-04T11:56:44;100902.59;;;21.85;35.35
58769;BME280;44536;47.474;19.056;2023-06-04T11:59:48;100899.84;;;21.62;35.58
58769;BME280;44536;47.474;19.056;2023-06-04T12:02:51;100903.75;;;21.51;36.67
58769;BME280;44536;47.474;19.056;2023-06-04T12:05:55;100900.75;;;21.38;38.50
58769;BME280;44536;47.474;19.056;2023-06-04T12:08:57;100901.81;;;21.21;35.65
58769;BME280;44536;47.474;19.056;2023-06-04T12:12:02;100906.31;;;21.36;38.70
58769;BME280;44536;47.474;19.056;2023-06-04T12:15:04;100902.06;;;21.50;38.67
58769;BME280;44536;47.474;19.056;2023-06-04T12:18:08;100905.41;;;21.60;38.65
58769;BME280;44536;47.474;19.056;2023-06-04T12:21:20;100901.78;;;21.37;44.30
58769;BME280;44536;47.474;19.056;2023-06-04T12:24:24;100900.75;;;21.38;42.77
58769;BME280;44536;47.474;19.056;2023-06-04T12:27:26;100904.38;;;21.69;44.58
58769;BME280;44536;47.474;19.056;2023-06-04T12:30:37;100903.59;;;22.23;45.59
58769;BME280;44536;47.474;19.056;2023-06-04T12:33:40;100897.97;;;22.70;37.91
58769;BME280;44536;47.474;19.056;2023-06-04T12:36:43;100895.00;;;23.17;39.12
58769;BME280;44536;47.474;19.056;2023-06-04T12:39:45;100894.13;;;23.90;37.01
58769;BME280;44536;47.474;19.056;2023-06-04T12:42:50;100891.56;;;24.03;37.13
58769;BME280;44536;47.474;19.056;2023-06-04T12:45:52;100897.38;;;24.22;40.86
58769;BME280;44536;47.474;19.056;2023-06-04T12:48:55;100890.06;;;24.37;40.09
58769;BME280;44536;47.474;19.056;2023-06-04T12:51:57;100887.44;;;24.71;35.50
58769;BME280;44536;47.474;19.056;2023-06-04T12:54:59;100883.72;;;24.51;31.65
58769;BME280;44536;47.474;19.056;2023-06-04T12:58:01;100882.84;;;24.08;33.05
58769;BME280;44536;47.474;19.056;2023-06-04T13:01:04;100877.03;;;24.26;32.10
58769;BME280;44536;47.474;19.056;2023-06-04T13:04:08;100883.12;;;23.77;33.08
58769;BME280;44536;47.474;19.056;2023-06-04T13:07:12;100879.97;;;23.44;33.04
58769;BME280;44536;47.474;19.056;2023-06-04T13:10:14;100876.72;;;23.63;34.89
58769;BME280;44536;47.474;19.056;2023-06-04T13:13:17;100878.03;;;23.38;33.99
58769;BME280;44536;47.474;19.056;2023-06-04T13:16:19;100874.37;;;23.16;34.09
58769;BME280;44536;47.474;19.056;2023-06-04T13:19:22;100870.84;;;23.16;34.15
58769;BME280;44536;47.474;19.056;2023-06-04T13:22:25;100876.72;;;23.34;33.59
58769;BME280;44536;47.474;19.056;2023-06-04T13:25:27;100868.31;;;23.29;34.28
58769;BME280;44536;47.474;19.056;2023-06-04T13:28:30;100859.97;;;23.74;34.71
58769;BME280;44536;47.474;19.056;2023-06-04T13:31:32;100848.31;;;24.31;33.06
58769;BME280;44536;47.474;19.056;2023-06-04T13:34:35;100855.94;;;24.42;31.63
58769;BME280;44536;47.474;19.056;2023-06-04T13:37:37;100851.84;;;24.81;31.23
58769;BME280;44536;47.474;19.056;2023-06-04T13:40:39;100850.37;;;25.48;30.92
58769;BME280;44536;47.474;19.056;2023-06-04T13:43:41;100854.78;;;25.55;30.05
58769;BME280;44536;47.474;19.056;2023-06-04T13:46:43;100849.31;;;25.42;30.12
58769;BME280;44536;47.474;19.056;2023-06-04T13:49:46;100848.88;;;25.38;30.92
58769;BME280;44536;47.474;19.056;2023-06-04T13:52:48;100849.97;;;25.44;30.90
58769;BME280;44536;47.474;19.056;2023-06-04T13:55:50;100840.81;;;24.83;32.23
58769;BME280;44536;47.474;19.056;2023-06-04T13:58:59;100840.16;;;24.81;32.04
58769;BME280;44536;47.474;19.056;2023-06-04T14:02:01;100838.56;;;24.37;32.29
58769;BME280;44536;47.474;19.056;2023-06-04T14:05:04;100841.63;;;24.13;32.68
58769;BME280;44536;47.474;19.056;2023-06-04T14:08:06;100831.44;;;23.42;33.85
58769;BME280;44536;47.474;19.056;2023-06-04T14:11:08;100830.06;;;23.17;34.87
58769;BME280;44536;47.474;19.056;2023-06-04T14:14:12;100830.16;;;23.09;34.32
58769;BME280;44536;47.474;19.056;2023-06-04T14:17:15;100829.87;;;22.89;34.67
58769;BME280;44536;47.474;19.056;2023-06-04T14:20:17;100816.44;;;22.96;35.82
58769;BME280;44536;47.474;19.056;2023-06-04T14:23:19;100831.47;;;23.13;35.25
58769;BME280;44536;47.474;19.056;2023-06-04T14:26:22;100830.06;;;23.17;34.73
58769;BME280;44536;47.474;19.056;2023-06-04T14:29:24;100826.53;;;23.17;37.04
58769;BME280;44536;47.474;19.056;2023-06-04T14:32:26;100818.78;;;22.99;35.73
58769;BME280;44536;47.474;19.056;2023-06-04T14:35:29;100824.88;;;22.63;35.93
58769;BME280;44536;47.474;19.056;2023-06-04T14:38:31;100827.53;;;22.34;36.45
58769;BME280;44536;47.474;19.056;2023-06-04T14:41:33;100818.59;;;22.48;37.55
58769;BME280;44536;47.474;19.056;2023-06-04T14:44:35;100816.37;;;22.52;37.88
58769;BME280;44536;47.474;19.056;2023-06-04T14:47:37;100818.31;;;22.43;38.12
58769;BME280;44536;47.474;19.056;2023-06-04T14:50:39;100810.75;;;22.38;37.32
58769;BME280;44536;47.474;19.056;2023-06-04T14:53:42;100813.75;;;22.43;37.90
58769;BME280;44536;47.474;19.056;2023-06-04T14:56:44;100818.09;;;22.30;37.07
58769;BME280;44536;47.474;19.056;2023-06-04T14:59:48;100814.44;;;22.23;37.28
58769;BME280;44536;47.474;19.056;2023-06-04T15:02:50;100818.53;;;22.19;38.26
58769;BME280;44536;47.474;19.056;2023-06-04T15:05:52;100814.56;;;22.06;37.95
58769;BME280;44536;47.474;19.056;2023-06-04T15:09:04;100812.41;;;21.94;37.34
58769;BME280;44536;47.474;19.056;2023-06-04T15:12:06;100805.75;;;22.12;37.62
58769;BME280;44536;47.474;19.056;2023-06-04T15:15:09;100794.50;;;22.24;37.67
58769;BME280;44536;47.474;19.056;2023-06-04T15:18:11;100784.31;;;22.34;38.63
58769;BME280;44536;47.474;19.056;2023-06-04T15:21:13;100787.62;;;22.36;37.65
58769;BME280;44536;47.474;19.056;2023-06-04T15:24:16;100784.56;;;22.39;37.65
58769;BME280;44536;47.474;19.056;2023-06-04T15:27:18;100780.19;;;22.38;37.79
58769;BME280;44536;47.474;19.056;2023-06-04T15:30:20;100782.31;;;22.28;38.39
58769;BME280;44536;47.474;19.056;2023-06-04T15:33:22;100792.53;;;22.18;39.43
58769;BME280;44536;47.474;19.056;2023-06-04T15:36:25;100785.22;;;22.26;40.48
58769;BME280;44536;47.474;19.056;2023-06-04T15:39:27;100785.31;;;22.33;41.24
58769;BME280;44536;47.474;19.056;2023-06-04T15:42:29;100791.56;;;22.10;41.81
58769;BME280;44536;47.474;19.056;2023-06-04T15:45:31;100793.63;;;22.08;42.36
58769;BME280;44536;47.474;19.056;2023-06-04T15:48:34;100798.91;;;21.94;42.99
58769;BME280;44536;47.474;19.056;2023-06-04T15:51:36;100783.16;;;21.83;43.40